CYYZ/YYZ METAR and TAF weather

Enter ICAO airport designator
Station Type Date Time Source
CYYZ METAR 2018/07/15 21:00 UTC NOAA

CYYZ 152100Z 16006KT 110V190 15SM FEW050 SCT230 30/19 A2996 RMK CU1CI2 SLP143 DENSITY ALT 2400FT


Station Type Date Time Source
CYYZ Decoded METAR 2018/07/15 21:00 UTC NOAA

Toronto Pearson Int'L. Ont., Canada (CYYZ) 43-40N 079-38W 173M
Jul 15, 2018 - 05:00 PM EDT / 2018.07.15 2100 UTC
Wind: from the SSE (160 degrees) at 7 MPH (6 KT) (direction variable):0
Visibility: 15 mile(s):0
Sky conditions: partly cloudy
Temperature: 86 F (30 C)
Dew Point: 66 F (19 C)
Relative Humidity: 51%
Pressure (altimeter): 29.96 in. Hg (1014 hPa)
ob: CYYZ 152100Z 16006KT 110V190 15SM FEW050 SCT230 30/19 A2996 RMK CU1CI2 SLP143 DENSITY ALT 2400FT
cycle: 21

Station Type Date Time Source
CYYZ TAF 2018/07/15 21:42 UTC NOAA

TAF CYYZ 152038Z 1521/1624 13008KT P6SM FEW040 SCT230
TEMPO 1521/1524 BKN040
FM160000 19008KT P6SM FEW040
BECMG 1601/1603 VRB03KT
FM161400 15008KT P6SM SCT030 BKN080
BECMG 1614/1616 20012G22KT
FM162200 22015G25KT P6SM -SHRA BKN040 PROB30 1622/1624 VRB20G30KT 11/2SM +TSRA BR OVC020CB
RMK NXT FCST BY 160000Z


Example: see airport list